Time;durP1;ratioP1;P1;durP2;ratioP2;P2;SDS_P1;SDS_P2;PMS_P1;PMS_P2;Temp;Humidity;BMP_temperature;BMP_pressure;BME280_temperature;BME280_humidity;BME280_pressure;Samples;Min_cycle;Max_cycle;Signal;HPM_P1;HPM_P2
2021/10/16 00:00:48;;;;;;;;;15.00;10.25;;;;;13.73;75.14;101864.25;5030667;28;45685;-72
2021/10/16 00:03:14;;;;;;;;;11.00;10.50;;;;;13.76;74.94;101886.16;5030558;28;45369;-73
2021/10/16 00:05:39;;;;;;;;;15.00;11.25;;;;;13.68;74.90;101869.75;5030202;28;45497;-73
2021/10/16 00:08:05;;;;;;;;;14.75;11.50;;;;;13.37;75.49;101817.22;5029754;28;46350;-73
2021/10/16 00:10:30;;;;;;;;;15.50;12.25;;;;;13.71;75.38;101874.91;5028274;28;45568;-73
2021/10/16 00:12:57;;;;;;;;;14.00;12.50;;;;;13.71;75.47;101876.69;5033124;28;45357;-73
2021/10/16 00:15:23;;;;;;;;;13.75;11.75;;;;;13.71;75.58;101876.69;5033108;28;45289;-73
2021/10/16 00:17:49;;;;;;;;;12.75;10.50;;;;;13.71;75.56;101871.41;5033184;28;45441;-73
2021/10/16 00:20:14;;;;;;;;;12.25;10.25;;;;;13.72;75.48;101873.09;5035466;28;45315;-73
2021/10/16 00:22:39;;;;;;;;;13.50;11.00;;;;;13.68;75.61;101868.88;5036461;28;49105;-73
2021/10/16 00:25:05;;;;;;;;;16.50;11.75;;;;;13.72;75.47;101881.91;5037230;28;45210;-73
2021/10/16 00:27:30;;;;;;;;;18.00;11.75;;;;;13.70;75.30;101881.09;5036091;28;45575;-73
2021/10/16 00:29:55;;;;;;;;;12.25;10.50;;;;;13.63;75.65;101873.47;5036471;28;45325;-73
2021/10/16 00:32:21;;;;;;;;;11.75;9.50;;;;;13.68;75.34;101887.38;5036228;28;45379;-73
2021/10/16 00:34:46;;;;;;;;;13.25;10.25;;;;;13.66;75.30;101882.13;5036376;28;45439;-73
2021/10/16 00:37:12;;;;;;;;;14.25;10.50;;;;;13.65;75.37;101887.47;5036707;28;45481;-73
2021/10/16 00:39:37;;;;;;;;;11.00;11.00;;;;;13.63;75.33;101884.91;5036860;28;45311;-73
2021/10/16 00:42:04;;;;;;;;;15.25;14.25;;;;;13.61;75.43;101884.09;5035479;28;45431;-73
2021/10/16 00:44:30;;;;;;;;;12.00;11.50;;;;;13.61;75.38;101883.22;5035563;28;45575;-73
2021/10/16 00:46:57;;;;;;;;;14.00;12.00;;;;;13.59;75.45;101878.00;5035292;28;52399;-73
2021/10/16 00:49:24;;;;;;;;;11.75;10.50;;;;;13.56;75.18;101878.97;5029017;28;45508;-73
2021/10/16 00:51:49;;;;;;;;;12.00;11.50;;;;;13.43;75.37;101856.59;5037222;28;45342;-73
2021/10/16 00:54:15;;;;;;;;;14.00;11.25;;;;;13.45;75.18;101875.00;5036117;28;47884;-73
2021/10/16 00:56:42;;;;;;;;;10.00;9.25;;;;;13.40;75.32;101877.81;5035964;28;46109;-73
2021/10/16 00:59:08;;;;;;;;;12.75;11.00;;;;;13.27;75.26;101877.41;5035938;28;45383;-73
2021/10/16 01:01:35;;;;;;;;;14.00;12.75;;;;;13.23;75.56;101877.56;5016955;28;45468;-73
2021/10/16 01:04:02;;;;;;;;;11.75;10.00;;;;;13.21;75.36;101876.75;5036298;28;45398;-73
2021/10/16 01:06:28;;;;;;;;;13.25;12.25;;;;;13.15;75.85;101871.66;5035156;28;45507;-73
2021/10/16 01:08:55;;;;;;;;;16.00;12.75;;;;;13.13;75.96;101878.78;5036094;28;45967;-73
2021/10/16 01:11:34;;;;;;;;;15.50;12.00;;;;;13.07;75.96;101871.94;5035450;28;45377;-73
2021/10/16 01:14:03;;;;;;;;;14.00;12.00;;;;;13.02;75.88;101864.19;5036261;28;45548;-73
2021/10/16 01:16:28;;;;;;;;;13.00;11.75;;;;;12.98;76.09;101859.91;5035595;28;45304;-73
2021/10/16 01:18:54;;;;;;;;;13.00;11.00;;;;;13.00;75.65;101867.81;5035430;28;55586;-73
2021/10/16 01:21:20;;;;;;;;;11.50;11.50;;;;;12.90;75.98;101866.41;5034666;28;45486;-73
2021/10/16 01:23:46;;;;;;;;;14.50;11.00;;;;;12.93;75.63;101876.81;5035783;28;45496;-73
2021/10/16 01:26:12;;;;;;;;;7.75;4.00;;;;;12.30;75.84;101776.13;5035339;28;45664;-73
2021/10/16 01:28:37;;;;;;;;;14.75;12.25;;;;;12.81;75.80;101857.00;5035030;28;45356;-73
2021/10/16 01:31:02;;;;;;;;;11.75;9.75;;;;;12.72;76.23;101842.34;5035135;28;45395;-73
2021/10/16 01:33:29;;;;;;;;;12.75;9.50;;;;;12.76;76.07;101848.41;5035640;28;45320;-73
2021/10/16 01:36:03;;;;;;;;;12.75;11.75;;;;;12.76;76.17;101861.59;5034804;28;45652;-73
2021/10/16 01:38:29;;;;;;;;;17.00;10.25;;;;;12.70;76.34;101856.53;5034541;28;45963;-73
2021/10/16 01:40:55;;;;;;;;;11.75;10.75;;;;;12.68;76.16;101853.91;5035648;28;45434;-73
2021/10/16 01:43:21;;;;;;;;;17.25;11.00;;;;;12.66;75.83;101853.13;5035701;28;45294;-73
2021/10/16 01:45:46;;;;;;;;;14.25;11.75;;;;;12.62;76.10;101850.63;5035554;28;45500;-73
2021/10/16 01:48:12;;;;;;;;;12.00;11.00;;;;;12.57;76.00;101858.69;5034751;28;47290;-73
2021/10/16 01:50:42;;;;;;;;;9.00;8.50;;;;;12.51;75.83;101849.22;5014718;28;45519;-73
2021/10/16 01:53:10;;;;;;;;;10.00;9.75;;;;;12.45;76.23;101848.56;5034825;28;45387;-73
2021/10/16 01:55:37;;;;;;;;;13.25;11.75;;;;;12.44;76.11;101845.06;5035045;28;45380;-73
2021/10/16 01:58:10;;;;;;;;;12.75;10.75;;;;;12.41;76.56;101844.28;5034782;28;45577;-73
2021/10/16 02:00:36;;;;;;;;;14.50;12.00;;;;;12.38;76.42;101849.69;5033635;28;45418;-73
2021/10/16 02:03:06;;;;;;;;;11.50;10.75;;;;;12.35;76.42;101844.50;5034150;28;45567;-73
2021/10/16 02:05:32;;;;;;;;;14.25;10.50;;;;;12.31;76.47;101842.88;5034923;28;46410;-73
2021/10/16 02:07:57;;;;;;;;;13.50;12.50;;;;;12.24;76.33;101837.81;5034348;28;45542;-73
2021/10/16 02:10:22;;;;;;;;;12.00;12.00;;;;;12.27;76.34;101848.25;5034407;28;45449;-73
2021/10/16 02:12:48;;;;;;;;;12.25;10.25;;;;;12.16;76.75;101829.31;5036022;28;45399;-73
2021/10/16 02:15:13;;;;;;;;;18.25;11.00;;;;;12.21;76.75;101837.88;5033516;28;56553;-73
2021/10/16 02:17:38;;;;;;;;;14.50;12.00;;;;;12.03;76.37;101809.50;5034340;28;45281;-73
2021/10/16 02:20:04;;;;;;;;;15.25;11.00;;;;;12.15;76.55;101839.88;5035082;28;45641;-73
2021/10/16 02:22:29;;;;;;;;;13.75;10.00;;;;;12.12;76.57;101832.06;5035022;28;45416;-73
2021/10/16 02:24:55;;;;;;;;;13.50;10.50;;;;;12.04;76.46;101813.84;5034824;28;45345;-73
2021/10/16 02:27:20;;;;;;;;;12.00;9.75;;;;;12.08;76.50;101836.56;5033798;28;45578;-73
2021/10/16 02:29:46;;;;;;;;;10.75;9.25;;;;;12.06;76.45;101832.25;5034346;28;45405;-73
2021/10/16 02:32:11;;;;;;;;;12.75;11.00;;;;;11.94;76.51;101822.97;5034393;28;46694;-73
2021/10/16 02:34:36;;;;;;;;;11.00;10.50;;;;;12.00;76.74;101835.94;5034792;28;45303;-73
2021/10/16 02:37:03;;;;;;;;;12.00;9.25;;;;;11.96;76.50;101839.59;5034482;28;45426;-73
2021/10/16 02:39:29;;;;;;;;;10.00;10.00;;;;;11.91;76.68;101831.84;5034856;28;45442;-73
2021/10/16 02:41:58;;;;;;;;;11.00;10.00;;;;;11.90;76.76;101829.22;5033403;28;45323;-73
2021/10/16 02:44:25;;;;;;;;;10.00;9.25;;;;;11.83;76.71;101828.56;5033559;28;45954;-73
2021/10/16 02:46:50;;;;;;;;;10.00;8.00;;;;;11.75;76.89;101814.75;5034029;28;45470;-73
2021/10/16 02:49:16;;;;;;;;;11.00;11.00;;;;;11.76;76.86;101832.28;5034773;28;45488;-73
2021/10/16 02:51:41;;;;;;;;;11.25;9.25;;;;;11.77;76.73;101834.84;5034935;28;45329;-73
2021/10/16 02:54:06;;;;;;;;;11.25;9.75;;;;;11.75;76.76;101828.78;5034147;28;46167;-73
2021/10/16 02:56:32;;;;;;;;;12.25;10.25;;;;;11.69;76.76;101830.72;5033174;28;45530;-72
2021/10/16 02:58:57;;;;;;;;;8.75;8.75;;;;;11.69;76.85;101828.97;5034276;28;45339;-73
2021/10/16 03:01:22;;;;;;;;;12.50;9.75;;;;;11.67;76.72;101829.91;5032775;28;45402;-73
2021/10/16 03:03:48;;;;;;;;;10.25;10.25;;;;;11.57;76.83;101816.16;5033893;28;45553;-73
2021/10/16 03:06:13;;;;;;;;;21.25;16.25;;;;;11.60;76.90;101821.34;5033709;28;45481;-73
2021/10/16 03:08:38;;;;;;;;;11.75;10.75;;;;;11.56;77.09;101817.06;5034030;28;45362;-73
2021/10/16 03:11:04;;;;;;;;;13.75;10.75;;;;;11.56;76.79;101827.59;5032952;28;49684;-73
2021/10/16 03:13:32;;;;;;;;;14.00;9.00;;;;;11.56;77.27;101829.38;5033460;28;46075;-73
2021/10/16 03:15:57;;;;;;;;;9.50;9.50;;;;;11.54;77.01;101826.78;5033318;28;45355;-73
2021/10/16 03:18:23;;;;;;;;;14.00;9.75;;;;;11.54;77.38;101829.44;5034594;28;45499;-73
2021/10/16 03:20:48;;;;;;;;;8.75;8.25;;;;;11.53;77.33;101827.69;5033817;28;45482;-73
2021/10/16 03:23:13;;;;;;;;;11.25;9.00;;;;;11.52;77.25;101825.09;5033580;28;46047;-73
2021/10/16 03:25:38;;;;;;;;;9.50;9.00;;;;;11.51;77.26;101821.59;5016192;28;45479;-73
2021/10/16 03:28:04;;;;;;;;;8.75;8.75;;;;;11.50;77.31;101826.00;5015079;28;45440;-73
2021/10/16 03:30:29;;;;;;;;;10.25;8.00;;;;;11.40;77.24;101810.53;5032568;28;45461;-73
2021/10/16 03:32:54;;;;;;;;;13.25;11.00;;;;;11.46;77.06;101819.09;5032784;28;45505;-73
2021/10/16 03:35:20;;;;;;;;;14.25;9.25;;;;;11.47;76.92;101828.72;5035826;28;46082;-72
2021/10/16 03:37:45;;;;;;;;;10.25;8.75;;;;;11.43;76.82;101824.47;5036167;28;45590;-72
2021/10/16 03:40:11;;;;;;;;;12.25;10.25;;;;;11.42;76.72;101821.88;5015836;28;45455;-72
2021/10/16 03:42:36;;;;;;;;;9.75;9.25;;;;;11.39;77.14;101822.84;5038447;28;45435;-72
2021/10/16 03:45:02;;;;;;;;;10.25;8.00;;;;;11.38;77.05;101823.75;5045178;28;45695;-72
2021/10/16 03:47:27;;;;;;;;;10.50;10.00;;;;;11.29;76.74;101816.09;5044456;28;45482;-72
2021/10/16 03:49:53;;;;;;;;;8.00;7.25;;;;;11.29;76.98;101816.09;5049625;28;45501;-72
2021/10/16 03:52:18;;;;;;;;;10.00;9.75;;;;;11.08;77.03;101788.63;5033944;28;45973;-72
2021/10/16 03:54:43;;;;;;;;;11.75;11.75;;;;;11.23;77.24;101818.91;5041351;28;45360;-72
2021/10/16 03:57:09;;;;;;;;;8.25;8.00;;;;;11.20;76.94;101819.00;5040232;28;45473;-72
2021/10/16 03:59:37;;;;;;;;;14.25;10.25;;;;;11.17;77.17;101813.81;5041329;28;46277;-72
2021/10/16 04:02:04;;;;;;;;;10.25;9.00;;;;;11.15;77.13;101819.13;5040102;28;46120;-72
2021/10/16 04:04:29;;;;;;;;;15.50;10.75;;;;;11.13;77.17;101820.09;5035721;28;45623;-72
2021/10/16 04:06:54;;;;;;;;;13.00;10.50;;;;;11.10;76.95;101823.66;5039990;28;45427;-72
2021/10/16 04:09:20;;;;;;;;;12.00;10.25;;;;;11.10;76.95;101828.03;5041165;28;45580;-72
2021/10/16 04:11:45;;;;;;;;;12.00;11.00;;;;;10.97;77.28;101807.34;5041365;28;45497;-72
2021/10/16 04:14:10;;;;;;;;;10.50;10.00;;;;;11.06;77.44;101824.63;5040440;28;45452;-73
2021/10/16 04:16:36;;;;;;;;;13.25;10.25;;;;;11.05;77.15;101825.53;5048404;28;45471;-72
2021/10/16 04:19:01;;;;;;;;;13.33;9.33;;;;;11.00;77.36;101823.94;5019949;28;54956;-73
2021/10/16 04:21:26;;;;;;;;;10.00;9.25;;;;;11.03;77.11;101830.00;5045932;28;45964;-73
2021/10/16 04:23:52;;;;;;;;;12.75;9.75;;;;;11.01;77.32;101836.19;5044018;28;45424;-72
2021/10/16 04:26:17;;;;;;;;;12.75;10.50;;;;;10.92;77.22;101819.75;5052064;28;45270;-72
2021/10/16 04:28:42;;;;;;;;;14.50;12.50;;;;;10.98;77.46;101831.88;5037659;28;45361;-72
2021/10/16 04:31:08;;;;;;;;;13.00;11.75;;;;;10.77;77.35;101801.75;5035548;28;45506;-72
2021/10/16 04:33:33;;;;;;;;;12.25;10.25;;;;;10.99;77.47;101836.22;5040004;28;53136;-72
2021/10/16 04:36:00;;;;;;;;;15.00;10.25;;;;;10.98;77.65;101840.63;5040946;28;45442;-72
2021/10/16 04:38:25;;;;;;;;;11.00;10.00;;;;;10.96;77.52;101833.66;5021257;28;45554;-72
2021/10/16 04:40:51;;;;;;;;;12.25;9.00;;;;;11.00;77.73;101832.69;5027501;28;46110;-72
2021/10/16 04:43:16;;;;;;;;;14.25;13.25;;;;;10.94;78.04;101820.56;5037311;28;45280;-72
2021/10/16 04:45:45;;;;;;;;;15.00;11.25;;;;;11.05;78.07;101836.06;5038310;28;45632;-72
2021/10/16 04:48:11;;;;;;;;;9.75;9.25;;;;;11.02;77.83;101819.53;5044534;28;45465;-72
2021/10/16 04:50:36;;;;;;;;;9.50;8.00;;;;;11.08;77.54;101833.34;5041465;28;45560;-72
2021/10/16 04:53:02;;;;;;;;;11.25;9.75;;;;;11.10;77.97;101835.94;5043058;28;45459;-72
2021/10/16 04:55:27;;;;;;;;;15.50;9.25;;;;;11.09;77.77;101834.22;5035954;28;45732;-72
2021/10/16 04:57:52;;;;;;;;;11.00;11.00;;;;;11.05;77.78;101830.81;5040386;28;45477;-72
2021/10/16 05:00:18;;;;;;;;;13.00;9.50;;;;;11.09;78.25;101842.97;5040474;28;46114;-72
2021/10/16 05:02:43;;;;;;;;;13.25;10.75;;;;;11.07;78.00;101830.78;5038476;28;45419;-72
2021/10/16 05:05:08;;;;;;;;;14.00;11.25;;;;;11.13;78.34;101836.72;5039526;28;45528;-72
2021/10/16 05:07:34;;;;;;;;;16.00;14.75;;;;;11.18;78.08;101845.34;5037209;28;45539;-72
2021/10/16 05:09:59;;;;;;;;;14.25;14.00;;;;;11.19;78.10;101844.44;5039030;28;45993;-72
2021/10/16 05:12:24;;;;;;;;;21.25;16.00;;;;;11.24;78.20;101853.06;5050461;28;45386;-71
2021/10/16 05:14:50;;;;;;;;;18.25;14.75;;;;;11.32;78.02;101863.38;5045696;28;45476;-72
2021/10/16 05:17:15;;;;;;;;;21.75;14.50;;;;;11.35;78.11;101854.53;5044931;28;45533;-72
2021/10/16 05:19:40;;;;;;;;;21.75;17.00;;;;;10.97;78.27;101791.56;5037932;28;45457;-72
2021/10/16 05:22:06;;;;;;;;;21.00;16.75;;;;;11.30;78.00;101849.41;5041854;28;45632;-72
2021/10/16 05:24:31;;;;;;;;;21.00;20.50;;;;;11.42;78.03;101869.25;5041054;28;45767;-72
2021/10/16 05:26:57;;;;;;;;;22.50;17.25;;;;;11.44;78.14;101870.94;5035512;28;45536;-72
2021/10/16 05:29:22;;;;;;;;;26.00;23.00;;;;;11.40;78.02;101850.88;5043145;28;45394;-72
2021/10/16 05:31:49;;;;;;;;;23.75;22.25;;;;;11.48;78.01;101869.06;5035597;28;45310;-72
2021/10/16 05:34:14;;;;;;;;;22.75;17.00;;;;;11.50;78.16;101873.41;5034567;28;45541;-72
2021/10/16 05:36:39;;;;;;;;;18.75;17.75;;;;;11.48;78.20;101855.91;5035219;28;45487;-72
2021/10/16 05:39:05;;;;;;;;;25.50;21.75;;;;;11.53;77.98;101858.41;5035154;28;46451;-72
2021/10/16 05:41:30;;;;;;;;;16.50;16.00;;;;;11.55;77.95;101868.00;5035370;28;45447;-71
2021/10/16 05:43:55;;;;;;;;;22.33;16.00;;;;;11.57;77.86;101855.66;5034623;28;52543;-72
2021/10/16 05:46:21;;;;;;;;;18.50;15.50;;;;;11.53;78.03;101848.72;5033597;28;45488;-72
2021/10/16 05:48:47;;;;;;;;;14.00;11.50;;;;;11.54;77.75;101845.22;5034750;28;46101;-72
2021/10/16 05:51:12;;;;;;;;;9.50;9.25;;;;;11.63;77.47;101863.34;5034302;28;45895;-72
2021/10/16 05:53:38;;;;;;;;;13.75;13.75;;;;;11.61;77.86;101849.38;5034324;28;45441;-72
2021/10/16 05:56:03;;;;;;;;;13.75;12.00;;;;;11.67;77.40;101856.25;5034013;28;54306;-72
2021/10/16 05:58:29;;;;;;;;;16.50;12.25;;;;;11.70;77.77;101858.78;5035384;28;46129;-72
2021/10/16 06:00:54;;;;;;;;;13.50;11.00;;;;;11.71;77.78;101856.09;5035702;28;45328;-71
2021/10/16 06:03:19;;;;;;;;;10.00;9.25;;;;;11.73;76.92;101856.91;5035000;28;45660;-72
2021/10/16 06:05:45;;;;;;;;;9.50;9.00;;;;;11.74;77.00;101858.66;5034497;28;45446;-72
2021/10/16 06:08:10;;;;;;;;;15.50;12.50;;;;;11.72;76.89;101855.19;5034664;28;46141;-72
2021/10/16 06:10:35;;;;;;;;;13.25;10.00;;;;;11.77;76.96;101863.81;5034600;28;45498;-72
2021/10/16 06:13:01;;;;;;;;;13.75;8.50;;;;;11.79;76.89;101861.13;5034601;28;45240;-72
2021/10/16 06:15:26;;;;;;;;;10.75;10.00;;;;;11.81;76.98;101866.38;5034799;28;45483;-72
2021/10/16 06:17:51;;;;;;;;;16.25;11.00;;;;;11.82;77.04;101860.22;5032783;28;48754;-72
2021/10/16 06:20:17;;;;;;;;;11.00;9.25;;;;;11.85;77.37;101858.38;5034700;28;46516;-72
2021/10/16 06:22:42;;;;;;;;;11.00;10.00;;;;;11.85;77.06;101857.47;5035024;28;45678;-72
2021/10/16 06:25:08;;;;;;;;;10.50;10.00;;;;;11.86;76.93;101859.22;5034609;28;46347;-72
2021/10/16 06:27:33;;;;;;;;;11.00;8.50;;;;;11.84;76.88;101850.50;5016675;28;47138;-72
2021/10/16 06:29:59;;;;;;;;;11.75;8.25;;;;;11.90;77.00;101861.72;5034091;28;45445;-72
2021/10/16 06:32:24;;;;;;;;;14.50;11.50;;;;;11.92;76.97;101866.94;5034248;28;45443;-72
2021/10/16 06:34:50;;;;;;;;;11.00;11.00;;;;;11.87;77.18;101866.22;5034337;28;45547;-72
2021/10/16 06:37:15;;;;;;;;;12.00;10.00;;;;;11.94;76.80;101878.28;5034010;28;45548;-72
2021/10/16 06:39:41;;;;;;;;;18.00;15.25;;;;;11.92;76.85;101864.31;5034883;28;45472;-72
2021/10/16 06:42:06;;;;;;;;;11.75;11.00;;;;;12.00;76.54;101878.94;5034946;28;45519;-72
2021/10/16 06:44:32;;;;;;;;;10.50;10.00;;;;;12.07;76.47;101884.06;5034221;28;45466;-72
2021/10/16 06:46:57;;;;;;;;;12.25;11.00;;;;;12.07;76.91;101878.78;5033173;28;46039;-72
2021/10/16 06:49:23;;;;;;;;;11.00;10.00;;;;;12.20;76.53;101888.03;5034184;28;45554;-72
2021/10/16 06:51:48;;;;;;;;;12.25;10.50;;;;;12.22;76.47;101886.22;5034320;28;45436;-72
2021/10/16 06:54:14;;;;;;;;;16.00;11.25;;;;;12.32;76.72;101885.03;5034369;28;45442;-72
2021/10/16 06:56:39;;;;;;;;;10.25;9.50;;;;;12.38;76.68;101886.59;5034132;28;46262;-72
2021/10/16 06:59:05;;;;;;;;;11.50;11.50;;;;;12.44;76.19;101889.03;5033895;28;45405;-73
2021/10/16 07:01:30;;;;;;;;;12.25;11.75;;;;;12.51;76.10;101888.75;5034465;28;45387;-72
2021/10/16 07:03:55;;;;;;;;;16.00;13.50;;;;;12.59;75.92;101879.75;5034031;28;45161;-72
2021/10/16 07:06:21;;;;;;;;;12.75;12.00;;;;;12.62;76.02;101874.38;5033513;28;58548;-74
2021/10/16 07:08:46;;;;;;;;;12.25;11.75;;;;;12.76;75.20;101888.81;5032711;28;51819;-71
2021/10/16 07:11:11;;;;;;;;;17.25;12.00;;;;;12.85;75.32;101892.06;5033443;28;45557;-72
2021/10/16 07:13:37;;;;;;;;;20.75;15.50;;;;;12.86;75.33;101872.69;5034504;28;45710;-72
2021/10/16 07:16:03;;;;;;;;;17.25;13.75;;;;;13.02;75.25;101897.63;5034253;28;46020;-71
2021/10/16 07:18:29;;;;;;;;;23.00;19.00;;;;;13.11;74.97;101897.31;5033948;28;45463;-70
2021/10/16 07:20:55;;;;;;;;;20.00;16.00;;;;;13.23;74.36;101891.63;5033908;28;45528;-70
2021/10/16 07:23:26;;;;;;;;;17.00;12.00;;;;;13.38;73.81;101898.13;5033299;28;45697;-69
2021/10/16 07:25:54;;;;;;;;;16.75;12.25;;;;;13.58;74.12;101903.56;5033642;28;45403;-72
2021/10/16 07:28:21;;;;;;;;;16.00;14.75;;;;;13.61;73.51;101877.94;5031658;28;45403;-72
2021/10/16 07:30:46;;;;;;;;;18.25;13.50;;;;;13.94;73.30;101904.84;5031200;28;45693;-72
2021/10/16 07:33:13;;;;;;;;;19.50;15.25;;;;;14.12;72.44;101908.59;5032847;28;46915;-72
2021/10/16 07:35:42;;;;;;;;;25.75;21.50;;;;;14.35;72.11;101914.72;5033151;28;45999;-72
2021/10/16 07:38:08;;;;;;;;;21.50;20.75;;;;;14.64;71.53;101910.03;5033008;28;45538;-72
2021/10/16 07:40:33;;;;;;;;;21.00;18.25;;;;;15.02;70.86;101920.78;5032754;28;45569;-73
2021/10/16 07:42:58;;;;;;;;;33.00;28.75;;;;;15.35;70.18;101899.97;5032743;28;45509;-72
2021/10/16 07:45:24;;;;;;;;;16.75;16.75;;;;;15.65;68.98;101909.19;5032582;28;53802;-73
2021/10/16 07:47:50;;;;;;;;;28.25;24.50;;;;;15.93;68.81;101905.28;5032321;28;45506;-73
2021/10/16 07:50:15;;;;;;;;;21.25;18.00;;;;;15.98;68.14;101892.66;5033459;28;45360;-73
2021/10/16 07:52:41;;;;;;;;;24.00;17.00;;;;;16.25;67.22;101917.00;5031757;28;45407;-71
2021/10/16 07:55:06;;;;;;;;;13.50;13.50;;;;;16.33;67.32;101912.19;5033091;28;45524;-71
2021/10/16 07:57:32;;;;;;;;;25.75;19.50;;;;;16.24;66.43;101904.69;5032157;28;45325;-71
2021/10/16 07:59:57;;;;;;;;;18.75;17.75;;;;;16.35;66.52;101922.75;5033107;28;47087;-72
2021/10/16 08:02:22;;;;;;;;;17.50;15.75;;;;;16.40;65.73;101918.94;5031157;28;45444;-71
2021/10/16 08:04:48;;;;;;;;;11.75;10.75;;;;;16.41;65.31;101920.66;5033258;28;45415;-71
2021/10/16 08:07:13;;;;;;;;;13.00;9.00;;;;;16.49;65.59;101917.59;5033867;28;45304;-72
2021/10/16 08:09:38;;;;;;;;;19.50;14.50;;;;;16.80;65.58;101918.78;5032888;28;45612;-71
2021/10/16 08:12:04;;;;;;;;;13.50;10.75;;;;;17.74;65.74;101918.31;5037471;28;45646;-72
2021/10/16 08:14:29;;;;;;;;;9.75;9.75;;;;;19.79;62.52;101909.03;5036816;28;46145;-72
2021/10/16 08:16:55;;;;;;;;;14.00;12.75;;;;;21.24;60.70;101904.72;5036509;28;45375;-72
2021/10/16 08:19:20;;;;;;;;;15.50;14.75;;;;;23.14;59.43;101904.28;5034265;28;45466;-72
2021/10/16 08:21:45;;;;;;;;;14.25;13.00;;;;;24.65;54.97;101893.91;5038497;28;45297;-72
2021/10/16 08:24:11;;;;;;;;;13.75;11.25;;;;;26.54;53.72;101887.09;5037332;28;46017;-72
2021/10/16 08:26:36;;;;;;;;;10.00;10.00;;;;;28.64;50.07;101888.38;5037441;28;45339;-72
2021/10/16 08:29:01;;;;;;;;;17.50;15.25;;;;;30.58;47.10;101913.91;5037418;28;45390;-72
2021/10/16 08:31:28;;;;;;;;;12.25;11.50;;;;;32.27;44.47;101907.41;5034634;28;45595;-72
2021/10/16 08:33:54;;;;;;;;;11.00;11.00;;;;;33.71;41.37;101898.25;5027615;28;46309;-72
2021/10/16 08:36:19;;;;;;;;;16.00;15.00;;;;;34.86;39.91;101914.63;5034724;28;45536;-72
2021/10/16 08:38:45;;;;;;;;;12.25;11.25;;;;;35.77;37.73;101910.00;5044259;28;45548;-72
2021/10/16 08:41:11;;;;;;;;;13.00;12.00;;;;;36.67;36.13;101904.34;5044832;28;45351;-72
2021/10/16 08:43:36;;;;;;;;;17.00;14.25;;;;;37.53;35.69;101916.06;5035822;28;45490;-74
2021/10/16 08:46:02;;;;;;;;;53.50;42.50;;;;;38.15;34.40;101902.72;5034493;28;46117;-76
2021/10/16 08:48:29;;;;;;;;;17.75;15.50;;;;;38.34;32.11;101909.19;5035261;28;45289;-75
2021/10/16 08:50:57;;;;;;;;;11.00;10.50;;;;;38.73;32.66;101924.50;5034380;28;45555;-74
2021/10/16 08:53:22;;;;;;;;;9.50;9.50;;;;;39.30;30.53;101924.44;5034617;28;48089;-74
2021/10/16 08:55:51;;;;;;;;;11.00;9.00;;;;;39.84;29.11;101914.53;5034279;28;45428;-75
2021/10/16 08:58:18;;;;;;;;;7.75;7.00;;;;;40.55;28.67;101923.91;5036136;28;45360;-72
2021/10/16 09:00:49;;;;;;;;;10.00;8.50;;;;;41.29;27.88;101927.88;5036907;28;45470;-72
2021/10/16 09:03:28;;;;;;;;;10.25;10.00;;;;;41.89;27.12;101929.47;5035114;28;46224;-73
2021/10/16 09:06:20;;;;;;;;;8.00;8.00;;;;;42.38;26.32;101949.19;5035521;28;45531;-72
2021/10/16 09:08:52;;;;;;;;;19.50;17.75;;;;;42.69;25.46;101948.66;5035818;28;47722;-71
2021/10/16 09:11:17;;;;;;;;;8.00;7.25;;;;;43.10;24.73;101943.81;5040597;28;45659;-72
2021/10/16 09:14:01;;;;;;;;;11.00;9.25;;;;;43.47;24.17;101943.22;5037700;28;46973;-72
2021/10/16 09:16:31;;;;;;;;;10.25;9.25;;;;;43.82;23.72;101936.50;5019979;28;45597;-72
2021/10/16 09:19:13;;;;;;;;;13.75;12.00;;;;;44.11;23.23;101932.34;5036745;28;45521;-73
2021/10/16 09:21:42;;;;;;;;;11.50;10.25;;;;;44.20;23.08;101938.28;5036310;28;45572;-72
2021/10/16 09:24:11;;;;;;;;;12.00;8.75;;;;;44.26;22.60;101929.78;5035036;28;45508;-72
2021/10/16 09:26:40;;;;;;;;;10.00;9.75;;;;;44.34;22.04;101931.25;5035064;28;45520;-72
2021/10/16 09:29:08;;;;;;;;;8.25;7.00;;;;;44.17;21.77;101933.25;5033637;28;45685;-73
2021/10/16 09:31:45;;;;;;;;;9.00;9.00;;;;;43.83;21.60;101935.38;5035594;28;45609;-72
2021/10/16 09:34:11;;;;;;;;;13.50;12.25;;;;;43.30;21.91;101928.59;5035545;28;45470;-72
2021/10/16 09:36:39;;;;;;;;;13.00;9.25;;;;;42.83;21.61;101938.13;5034671;28;45269;-72
2021/10/16 09:39:06;;;;;;;;;9.00;9.00;;;;;41.87;22.52;101926.13;5014483;28;45389;-71
2021/10/16 09:41:35;;;;;;;;;9.00;8.25;;;;;40.98;22.96;101934.63;5035365;28;45384;-71
2021/10/16 09:44:03;;;;;;;;;9.50;9.50;;;;;40.40;23.65;101938.09;5034898;28;46440;-71
2021/10/16 09:46:28;;;;;;;;;10.25;9.00;;;;;39.76;23.29;101929.44;5035272;28;45341;-71
2021/10/16 09:48:53;;;;;;;;;8.00;8.00;;;;;39.31;23.98;101929.72;5036108;28;45393;-71
2021/10/16 09:51:21;;;;;;;;;8.00;7.00;;;;;38.84;23.80;101945.81;5035306;28;45682;-72
2021/10/16 09:54:06;;;;;;;;;12.75;10.50;;;;;38.18;24.42;101934.38;5035246;28;48556;-71
2021/10/16 09:56:36;;;;;;;;;10.25;9.75;;;;;37.66;24.41;101928.91;5035331;28;45575;-72
2021/10/16 09:59:03;;;;;;;;;12.25;9.25;;;;;37.46;24.64;101936.34;5034325;28;45361;-71
2021/10/16 10:01:29;;;;;;;;;9.00;9.00;;;;;37.21;24.66;101937.00;5034808;28;45396;-71
2021/10/16 10:03:56;;;;;;;;;8.75;8.00;;;;;37.04;25.46;101935.75;5035778;28;45375;-71
2021/10/16 10:06:24;;;;;;;;;10.75;10.75;;;;;36.58;25.19;101931.09;5049512;28;45648;-71
2021/10/16 10:08:50;;;;;;;;;12.50;11.25;;;;;36.10;25.21;101933.06;5035044;28;45446;-71
2021/10/16 10:11:16;;;;;;;;;9.50;7.50;;;;;35.48;25.68;101927.50;5034846;28;45455;-72
2021/10/16 10:13:41;;;;;;;;;9.75;9.00;;;;;34.90;26.45;101921.38;5034148;28;45383;-70
2021/10/16 10:16:07;;;;;;;;;12.75;10.50;;;;;34.40;26.16;101925.06;5034632;28;51289;-71
2021/10/16 10:21:20;;;;;;;;;8.75;8.75;;;;;33.58;27.12;101923.47;5034739;28;45475;-71
2021/10/16 10:23:55;;;;;;;;;12.00;10.50;;;;;33.23;27.58;101917.69;5034630;28;46969;-72
2021/10/16 10:26:22;;;;;;;;;7.50;6.75;;;;;32.96;28.11;101924.59;5040744;28;45819;-72
2021/10/16 10:29:06;;;;;;;;;9.75;8.50;;;;;32.64;27.72;101919.41;5033796;28;46361;-72
2021/10/16 10:31:43;;;;;;;;;9.75;7.75;;;;;32.27;28.29;101922.88;5034299;28;45347;-72
2021/10/16 10:34:38;;;;;;;;;7.25;6.50;;;;;31.94;29.09;101914.88;5034122;28;45418;-71
2021/10/16 10:37:11;;;;;;;;;7.50;6.00;;;;;31.55;28.93;101917.59;5033067;28;45429;-71
2021/10/16 10:39:49;;;;;;;;;8.00;6.25;;;;;31.23;28.66;101922.06;5033493;28;45494;-71
2021/10/16 10:42:14;;;;;;;;;7.00;7.00;;;;;31.00;28.74;101915.63;5034174;28;45403;-71
2021/10/16 10:44:50;;;;;;;;;6.00;5.00;;;;;30.84;29.21;101920.06;5033700;28;45685;-71
2021/10/16 10:47:35;;;;;;;;;6.25;6.25;;;;;30.67;29.19;101910.19;5034074;28;45253;-72
2021/10/16 10:50:04;;;;;;;;;7.25;7.25;;;;;30.41;29.74;101915.75;5034157;28;45472;-70
2021/10/16 10:53:03;;;;;;;;;7.50;7.50;;;;;30.18;29.55;101918.28;5034366;28;45292;-71
2021/10/16 10:55:29;;;;;;;;;62.50;49.00;;;;;29.82;29.68;101913.03;5029293;28;46973;-71
2021/10/16 10:58:00;;;;;;;;;7.75;5.75;;;;;29.50;29.96;101912.88;5034956;28;45317;-71
2021/10/16 11:00:29;;;;;;;;;7.25;7.00;;;;;29.07;30.56;101912.75;5038464;28;45727;-70
2021/10/16 11:02:54;;;;;;;;;7.25;7.25;;;;;28.86;31.11;101910.38;5036057;28;45498;-70
2021/10/16 11:05:35;;;;;;;;;7.25;7.25;;;;;28.75;31.18;101913.31;5037870;28;45725;-71
2021/10/16 11:08:05;;;;;;;;;9.75;8.00;;;;;28.52;31.50;101898.59;5038055;28;45508;-71
2021/10/16 11:10:31;;;;;;;;;8.00;8.00;;;;;28.10;31.79;101880.22;5019587;28;45457;-70
2021/10/16 11:12:56;;;;;;;;;8.25;7.25;;;;;27.93;32.35;101905.34;5038324;28;45570;-70
2021/10/16 11:15:22;;;;;;;;;6.00;5.25;;;;;27.71;31.86;101907.47;5038467;28;45709;-70